Time;durP1;ratioP1;P1;durP2;ratioP2;P2;SDS_P1;SDS_P2;PMS_P1;PMS_P2;Temp;Humidity;BMP_temperature;BMP_pressure;BME280_temperature;BME280_humidity;BME280_pressure;Samples;Min_cycle;Max_cycle;Signal;HPM_P1;HPM_P2
2021/12/24 00:01:33;;;;;;;24.38;10.45;;;;;;;2.96;100.00;99889.56;15284424;19;20101;-60
2021/12/24 00:06:46;;;;;;;23.40;10.50;;;;;;;2.98;100.00;99887.03;15266535;19;20019;-60
2021/12/24 00:12:03;;;;;;;26.83;11.68;;;;;;;2.99;100.00;99887.06;15297013;19;20017;-60
2021/12/24 00:17:05;;;;;;;25.15;10.55;;;;;;;3.04;100.00;99876.00;15298535;19;20074;-60
2021/12/24 00:38:10;;;;;;;25.27;9.48;;;;;;;3.14;100.00;99872.91;15299357;19;20079;-59
2021/12/24 00:43:14;;;;;;;17.88;8.52;;;;;;;3.16;100.00;99860.88;15294770;19;20090;-60
2021/12/24 00:48:19;;;;;;;21.90;8.75;;;;;;;3.22;100.00;99858.47;15298795;19;20046;-60
2021/12/24 00:58:50;;;;;;;25.38;10.32;;;;;;;3.36;100.00;99870.16;15296024;19;20027;-59
2021/12/24 01:04:01;;;;;;;26.13;10.15;;;;;;;3.29;100.00;99863.03;15293994;19;20015;-60
2021/12/24 01:09:12;;;;;;;20.23;9.43;;;;;;;3.38;100.00;99865.03;15280407;19;20016;-60
2021/12/24 01:14:14;;;;;;;20.70;10.23;;;;;;;3.41;100.00;99854.78;15295679;19;20018;-60
2021/12/24 01:19:21;;;;;;;22.73;10.63;;;;;;;3.42;100.00;99853.06;15293182;19;20019;-60
2021/12/24 01:24:32;;;;;;;23.45;10.85;;;;;;;3.46;100.00;99847.16;15291069;19;20377;-61
2021/12/24 01:40:22;;;;;;;24.25;9.98;;;;;;;3.61;100.00;99845.03;15292857;19;20018;-60
2021/12/24 01:45:29;;;;;;;21.55;10.35;;;;;;;3.65;100.00;99841.69;15190584;19;2004278;-60
2021/12/24 01:50:33;;;;;;;21.48;10.73;;;;;;;3.61;100.00;99831.22;15292942;19;20018;-60
2021/12/24 01:55:36;;;;;;;22.63;9.73;;;;;;;3.71;100.00;99831.53;15293265;19;20391;-59
2021/12/24 02:00:43;;;;;;;19.48;9.52;;;;;;;3.71;100.00;99823.75;15291730;19;20018;-60
2021/12/24 02:05:53;;;;;;;21.58;9.85;;;;;;;3.78;100.00;99810.97;15269962;19;20031;-60
2021/12/24 02:11:10;;;;;;;24.27;9.43;;;;;;;3.81;100.00;99816.25;15289525;19;20018;-60
2021/12/24 02:31:57;;;;;;;18.10;8.10;;;;;;;3.95;100.00;99801.97;15289344;19;19923;-60
2021/12/24 02:36:58;;;;;;;19.25;7.50;;;;;;;4.02;100.00;99793.56;15289809;19;20037;-60
2021/12/24 02:42:13;;;;;;;20.60;7.68;;;;;;;4.05;100.00;99782.38;15291793;19;20090;-59
2021/12/24 02:57:49;;;;;;;14.82;7.20;;;;;;;4.11;100.00;99771.31;15289908;19;20041;-60
2021/12/24 03:02:58;;;;;;;13.25;6.97;;;;;;;4.22;100.00;99773.34;15287855;19;20499;-60
2021/12/24 03:08:11;;;;;;;13.93;6.78;;;;;;;4.21;100.00;99760.34;15267900;19;20014;-59
2021/12/24 03:13:15;;;;;;;12.95;6.15;;;;;;;4.24;100.00;99744.88;15283389;19;20015;-60
2021/12/24 03:18:24;;;;;;;14.27;6.65;;;;;;;4.30;100.00;99750.22;15285415;19;20021;-59
2021/12/24 03:24:33;;;;;;;13.50;6.85;;;;;;;4.32;100.00;99748.53;15286537;19;20483;-59
2021/12/24 03:29:09;;;;;;;13.40;6.22;;;;;;;4.40;100.00;99736.66;15286612;19;20010;-60
2021/12/24 03:34:14;;;;;;;14.48;6.38;;;;;;;4.38;100.00;99728.00;15288516;19;20018;-59
2021/12/24 03:39:18;;;;;;;14.02;6.53;;;;;;;4.41;100.00;99737.53;15287734;19;20014;-59
2021/12/24 03:44:21;;;;;;;13.60;6.22;;;;;;;4.42;100.00;99719.44;15302112;19;20294;-60
2021/12/24 03:49:34;;;;;;;11.23;5.78;;;;;;;4.53;100.00;99724.00;15300883;19;20110;-59
2021/12/24 03:59:59;;;;;;;11.88;5.50;;;;;;;4.57;100.00;99718.94;15299482;19;20446;-61
2021/12/24 04:05:28;;;;;;;13.77;6.28;;;;;;;4.52;100.00;99722.25;15174186;19;2004820;-60
2021/12/24 04:10:56;;;;;;;11.65;5.65;;;;;;;4.53;100.00;99719.69;15298062;19;20015;-60
2021/12/24 04:16:10;;;;;;;12.00;6.03;;;;;;;4.59;100.00;99718.97;15299220;19;20015;-60
2021/12/24 04:26:44;;;;;;;11.77;5.55;;;;;;;4.67;100.00;99711.38;15299502;19;20045;-60
2021/12/24 04:31:54;;;;;;;10.57;5.22;;;;;;;4.71;100.00;99695.91;15298329;19;20379;-60
2021/12/24 05:04:33;;;;;;;10.05;4.93;;;;;;;4.87;100.00;99711.84;15293758;19;20007;-60
2021/12/24 05:09:43;;;;;;;10.32;4.75;;;;;;;4.91;100.00;99719.72;15278716;19;20011;-59
2021/12/24 05:14:44;;;;;;;9.60;4.45;;;;;;;4.89;100.00;99716.22;15296774;19;20479;-60
2021/12/24 05:25:44;;;;;;;11.27;5.10;;;;;;;5.07;100.00;99715.75;15295862;19;20018;-60
2021/12/24 05:30:46;;;;;;;9.45;4.32;;;;;;;5.08;100.00;99707.13;15293852;19;20018;-59
2021/12/24 05:35:48;;;;;;;8.55;4.30;;;;;;;5.14;100.00;99703.78;15294279;19;20006;-59
2021/12/24 05:40:50;;;;;;;8.73;4.57;;;;;;;5.16;100.00;99711.63;15293243;19;20462;-59
2021/12/24 05:45:51;;;;;;;8.88;4.07;;;;;;;5.20;100.00;99719.50;15291569;19;20697;-60
2021/12/24 05:51:00;;;;;;;7.10;3.75;;;;;;;5.26;100.00;99705.78;15291811;19;20046;-60
2021/12/24 05:56:04;;;;;;;8.18;3.83;;;;;;;5.31;100.00;99698.94;15294253;19;20708;-60
2021/12/24 06:01:07;;;;;;;8.95;4.22;;;;;;;5.34;100.00;99693.81;15292381;19;20045;-60
2021/12/24 06:06:25;;;;;;;8.73;4.10;;;;;;;5.36;100.00;99686.06;15267283;19;20014;-59
2021/12/24 06:11:35;;;;;;;8.20;3.70;;;;;;;5.39;100.00;99681.84;15291610;19;20365;-60
2021/12/24 06:16:37;;;;;;;8.93;3.78;;;;;;;5.48;100.00;99684.59;15292433;19;20018;-60
2021/12/24 06:21:38;;;;;;;8.75;3.60;;;;;;;5.49;100.00;99688.06;15289922;19;20018;-59
2021/12/24 06:26:40;;;;;;;8.90;3.22;;;;;;;5.53;100.00;99689.03;15291446;19;20014;-60
2021/12/24 06:31:42;;;;;;;7.93;3.85;;;;;;;5.58;100.00;99690.84;15289578;19;20002;-59
2021/12/24 06:36:49;;;;;;;7.40;3.47;;;;;;;5.70;100.00;99695.41;15289345;19;20057;-59
2021/12/24 06:41:53;;;;;;;7.00;3.50;;;;;;;5.67;100.00;99700.53;15290100;19;20014;-59
2021/12/24 06:46:56;;;;;;;7.65;3.78;;;;;;;5.61;100.00;99703.88;15291041;19;20025;-59
2021/12/24 06:51:59;;;;;;;6.97;3.53;;;;;;;5.55;100.00;99695.13;15283528;19;20018;-59
2021/12/24 06:57:02;;;;;;;5.40;2.58;;;;;;;5.58;100.00;99700.38;15283025;19;20019;-59
2021/12/24 07:02:09;;;;;;;7.72;2.55;;;;;;;5.59;100.00;99725.50;15288069;19;20074;-58
2021/12/24 07:07:15;;;;;;;5.10;2.25;;;;;;;5.58;100.00;99723.75;15285407;19;20474;-59
2021/12/24 07:12:20;;;;;;;6.05;2.70;;;;;;;5.59;100.00;99723.78;15286943;19;20025;-60
2021/12/24 07:17:25;;;;;;;7.28;2.58;;;;;;;5.59;100.00;99725.50;15293385;19;20011;-58
2021/12/24 07:22:33;;;;;;;5.65;2.40;;;;;;;5.51;100.00;99721.84;15284915;19;20328;-59
2021/12/24 07:27:51;;;;;;;4.22;1.95;;;;;;;5.49;100.00;99729.63;15281614;19;20453;-58
2021/12/24 07:33:14;;;;;;;5.35;2.00;;;;;;;5.56;100.00;99728.03;15280901;19;20514;-60
2021/12/24 07:38:28;;;;;;;3.78;1.85;;;;;;;5.56;100.00;99747.06;15279265;19;20015;-59
2021/12/24 07:44:02;;;;;;;4.63;1.85;;;;;;;5.37;100.00;99753.59;15279836;19;20021;-59
2021/12/24 07:54:53;;;;;;;2.17;1.27;;;;;;;5.09;100.00;99770.31;15288558;19;20485;-58
2021/12/24 08:00:33;;;;;;;2.78;1.45;;;;;;;4.70;100.00;99782.34;15189093;19;2004483;-58
2021/12/24 08:05:41;;;;;;;2.97;1.40;;;;;;;4.39;100.00;99785.88;15283110;19;20040;-59
2021/12/24 08:10:46;;;;;;;2.50;1.30;;;;;;;4.10;100.00;99785.09;15282332;19;20045;-59
2021/12/24 08:16:20;;;;;;;4.28;1.88;;;;;;;3.99;100.00;99769.25;15287208;19;20014;-59
2021/12/24 08:21:54;;;;;;;8.32;2.65;;;;;;;4.01;100.00;99784.03;15280437;19;20010;-59
2021/12/24 08:27:24;;;;;;;6.90;2.70;;;;;;;3.98;100.00;99778.75;15292747;19;20018;-59
2021/12/24 08:32:48;;;;;;;4.82;2.35;;;;;;;3.93;100.00;99795.88;15274514;19;20015;-60
2021/12/24 08:38:10;;;;;;;9.07;2.70;;;;;;;3.89;100.00;99810.47;15292601;19;20021;-60
2021/12/24 08:43:54;;;;;;;7.20;3.05;;;;;;;3.87;100.00;99831.97;15269439;19;20025;-60
2021/12/24 08:49:26;;;;;;;5.85;2.90;;;;;;;3.71;100.00;99847.06;15272558;19;20018;-59
2021/12/24 08:54:47;;;;;;;6.47;2.60;;;;;;;3.68;100.00;99846.97;15272688;19;20014;-59
2021/12/24 09:00:15;;;;;;;;;;;;;;;3.43;100.00;99854.81;15264180;19;20018;-59
2021/12/24 09:05:54;;;;;;;7.35;3.35;;;;;;;3.32;100.00;99857.94;15272923;19;19994;-60
2021/12/24 09:11:17;;;;;;;8.55;3.67;;;;;;;3.14;100.00;99849.63;15271384;19;20026;-59
2021/12/24 09:16:40;;;;;;;7.55;3.60;;;;;;;3.07;100.00;99869.22;15269069;19;20043;-59
2021/12/24 09:21:57;;;;;;;8.77;3.92;;;;;;;3.00;100.00;99868.16;15268675;19;20094;-58
2021/12/24 09:27:24;;;;;;;7.38;3.47;;;;;;;3.05;100.00;99863.13;15270239;19;20049;-59
2021/12/24 09:32:49;;;;;;;8.15;3.67;;;;;;;3.01;100.00;99872.47;15271853;19;20018;-58
2021/12/24 09:38:16;;;;;;;9.48;4.28;;;;;;;2.91;100.00;99880.78;15271721;19;20018;-58
2021/12/24 09:43:39;;;;;;;7.97;3.53;;;;;;;2.68;100.00;99892.91;15266002;19;20010;-59
2021/12/24 09:48:42;;;;;;;6.97;3.22;;;;;;;2.79;100.00;99895.84;15267600;19;20030;-60
2021/12/24 09:53:56;;;;;;;8.38;3.50;;;;;;;2.78;100.00;99887.25;15289910;19;20018;-59
2021/12/24 09:59:21;;;;;;;6.50;3.17;;;;;;;2.73;100.00;99893.06;15264585;19;20403;-59
2021/12/24 10:04:49;;;;;;;7.30;3.30;;;;;;;2.51;100.00;99910.44;15262714;19;20021;-59
2021/12/24 10:10:18;;;;;;;7.18;3.30;;;;;;;2.37;100.00;99914.22;15268363;19;20308;-59
2021/12/24 10:16:00;;;;;;;6.90;3.20;;;;;;;2.24;100.00;99929.28;15163587;19;2004459;-58
2021/12/24 10:21:36;;;;;;;7.22;3.08;;;;;;;2.28;100.00;99945.75;15265108;19;20025;-58
2021/12/24 10:27:02;;;;;;;7.32;2.95;;;;;;;2.22;100.00;99954.19;15265281;19;20038;-59
2021/12/24 10:32:16;;;;;;;8.90;3.47;;;;;;;2.15;100.00;99951.28;15289585;19;20025;-59
2021/12/24 10:37:30;;;;;;;6.75;3.17;;;;;;;2.17;100.00;99958.28;15267918;19;20014;-59
2021/12/24 10:42:52;;;;;;;8.97;3.90;;;;;;;2.08;100.00;99950.19;15264883;19;20022;-59
2021/12/24 10:48:22;;;;;;;7.50;3.50;;;;;;;2.10;100.00;99948.53;15266966;19;20019;-59
2021/12/24 10:54:10;;;;;;;9.97;3.13;;;;;;;2.12;100.00;99954.66;15263054;19;20022;-60
2021/12/24 10:59:41;;;;;;;5.82;2.88;;;;;;;2.21;100.00;99967.91;15285411;19;20018;-59
2021/12/24 11:04:54;;;;;;;8.00;3.20;;;;;;;2.29;100.00;99961.31;15285048;19;20370;-59
2021/12/24 11:10:25;;;;;;;6.95;3.42;;;;;;;2.33;100.00;99953.66;15242608;19;20050;-59
2021/12/24 11:16:03;;;;;;;6.15;2.85;;;;;;;2.16;100.00;99953.91;15265995;19;20032;-59
2021/12/24 11:21:37;;;;;;;6.97;2.80;;;;;;;2.26;100.00;99970.66;15260799;19;20039;-59
2021/12/24 11:27:05;;;;;;;7.38;3.15;;;;;;;2.20;100.00;99970.44;15284025;19;20478;-59
2021/12/24 11:32:11;;;;;;;8.15;3.15;;;;;;;2.29;100.00;99976.81;15283047;19;20022;-59
2021/12/24 11:37:13;;;;;;;7.25;3.50;;;;;;;2.30;100.00;99983.75;15282190;19;20464;-59
2021/12/24 11:42:16;;;;;;;6.07;3.03;;;;;;;2.35;100.00;99991.66;15284310;19;20014;-60
2021/12/24 11:47:18;;;;;;;7.88;3.42;;;;;;;2.35;100.00;99995.97;15278006;19;20568;-59
2021/12/24 11:52:19;;;;;;;7.45;3.47;;;;;;;2.51;100.00;99987.97;15281445;19;20073;-60
2021/12/24 11:57:22;;;;;;;8.10;3.63;;;;;;;2.54;100.00;100003.56;15282492;19;20487;-59
2021/12/24 12:02:50;;;;;;;8.30;3.63;;;;;;;2.53;100.00;99998.34;15285884;19;20014;-60
2021/12/24 12:08:39;;;;;;;10.48;4.43;;;;;;;2.51;100.00;100000.88;15275828;19;20018;-59
2021/12/24 12:14:01;;;;;;;9.00;3.97;;;;;;;2.56;100.00;100004.50;15275675;19;20018;-60
2021/12/24 12:25:01;;;;;;;8.53;3.60;;;;;;;2.60;100.00;100016.72;15294740;19;20014;-60
2021/12/24 12:30:19;;;;;;;9.02;4.43;;;;;;;2.65;100.00;100025.50;15295089;19;21246;-60
2021/12/24 12:35:53;;;;;;;8.25;4.05;;;;;;;2.64;100.00;100030.63;15296816;19;20025;-60
2021/12/24 12:41:34;;;;;;;10.70;5.10;;;;;;;2.53;100.00;100019.03;15294264;19;20007;-60
2021/12/24 12:46:40;;;;;;;10.52;5.57;;;;;;;2.54;100.00;100032.00;15299783;19;20015;-59
2021/12/24 12:52:03;;;;;;;10.48;4.72;;;;;;;2.52;100.00;100025.88;15299000;19;20082;-60
2021/12/24 12:57:10;;;;;;;9.85;4.20;;;;;;;2.56;100.00;100024.31;15298550;19;20090;-60
2021/12/24 13:02:23;;;;;;;8.80;3.78;;;;;;;2.54;100.00;100028.53;15292066;19;20090;-60
2021/12/24 13:07:53;;;;;;;12.18;4.15;;;;;;;2.60;100.00;100033.94;15281995;19;20085;-60
2021/12/24 13:13:04;;;;;;;8.50;3.83;;;;;;;2.61;100.00;100041.75;15270305;19;20015;-60
2021/12/24 13:18:29;;;;;;;7.18;3.78;;;;;;;2.51;100.00;100044.81;15297075;19;20035;-60
2021/12/24 13:23:34;;;;;;;8.75;4.30;;;;;;;2.57;100.00;100050.22;15291131;19;20351;-60
2021/12/24 13:28:56;;;;;;;10.48;4.55;;;;;;;2.60;100.00;100065.84;15294515;19;20062;-60
2021/12/24 13:33:59;;;;;;;13.95;5.80;;;;;;;2.61;100.00;100070.19;15293694;19;20086;-59
2021/12/24 13:39:09;;;;;;;7.82;3.50;;;;;;;2.60;100.00;100070.13;15293232;19;20014;-60
2021/12/24 13:44:26;;;;;;;8.18;3.78;;;;;;;2.67;100.00;100084.16;15291168;19;20023;-60
2021/12/24 13:54:31;;;;;;;9.05;3.72;;;;;;;2.64;100.00;100088.41;15282047;19;20340;-59
2021/12/24 13:54:59;;;;;;;8.82;4.40;;;;;;;2.58;100.00;100093.34;15283061;19;20117;-59
2021/12/24 14:00:06;;;;;;;14.30;5.93;;;;;;;2.55;100.00;100095.81;15284784;19;20114;-58
2021/12/24 14:05:18;;;;;;;14.70;6.78;;;;;;;2.59;100.00;100100.25;15266202;19;20029;-59
2021/12/24 14:10:26;;;;;;;15.60;6.90;;;;;;;2.51;100.00;100096.50;15267182;19;20435;-59
2021/12/24 14:15:42;;;;;;;12.27;6.10;;;;;;;2.54;100.00;100109.53;15291277;19;20018;-59
2021/12/24 14:26:02;;;;;;;13.10;5.00;;;;;;;2.56;100.00;100117.34;15286172;19;20041;-59
2021/12/24 14:31:05;;;;;;;9.35;5.03;;;;;;;2.54;100.00;100127.63;15291607;19;20019;-59
2021/12/24 14:36:17;;;;;;;13.55;5.60;;;;;;;2.45;100.00;100137.63;15289576;19;20022;-59
2021/12/24 14:41:19;;;;;;;9.45;4.72;;;;;;;2.39;100.00;100145.13;15283254;19;20072;-59
2021/12/24 14:46:20;;;;;;;11.50;5.18;;;;;;;2.43;100.00;100153.06;15284446;19;20082;-57
2021/12/24 14:51:28;;;;;;;12.68;4.88;;;;;;;2.37;100.00;100146.75;15284912;19;20028;-59
2021/12/24 14:56:41;;;;;;;11.98;5.15;;;;;;;2.42;100.00;100163.34;15286469;19;20282;-59
2021/12/24 15:01:47;;;;;;;10.50;5.20;;;;;;;2.46;100.00;100170.38;15281462;19;20090;-59
2021/12/24 15:07:03;;;;;;;9.90;4.95;;;;;;;2.45;100.00;100184.13;15262454;19;20018;-59
2021/12/24 15:12:23;;;;;;;11.48;5.50;;;;;;;2.49;100.00;100196.34;15260160;19;20409;-59
2021/12/24 15:17:41;;;;;;;9.27;4.97;;;;;;;2.50;100.00;100202.41;15287985;19;20460;-59
2021/12/24 15:22:42;;;;;;;12.05;5.75;;;;;;;2.38;100.00;100211.41;15281706;19;20419;-59
2021/12/24 15:27:44;;;;;;;12.98;6.35;;;;;;;2.37;100.00;100222.59;15288185;19;20058;-58
2021/12/24 15:32:46;;;;;;;12.30;5.93;;;;;;;2.34;100.00;100214.69;15282977;19;20688;-58
2021/12/24 15:37:47;;;;;;;11.00;6.07;;;;;;;2.34;100.00;100229.31;15294936;19;20742;-58
2021/12/24 15:42:49;;;;;;;14.85;6.95;;;;;;;2.34;100.00;100231.91;15297387;19;20014;-57
2021/12/24 15:47:51;;;;;;;13.90;6.95;;;;;;;2.33;100.00;100241.34;15302159;19;20014;-58
2021/12/24 15:52:53;;;;;;;14.15;7.30;;;;;;;2.34;100.00;100235.34;15299663;19;20011;-58
2021/12/24 15:57:54;;;;;;;13.90;7.53;;;;;;;2.34;100.00;100234.47;15302131;19;20090;-58
2021/12/24 16:03:06;;;;;;;13.13;6.47;;;;;;;2.47;100.00;100249.69;15298021;19;20077;-59
2021/12/24 16:08:31;;;;;;;13.63;6.45;;;;;;;2.35;100.00;100267.25;15274816;19;20042;-58
2021/12/24 16:13:56;;;;;;;11.20;5.68;;;;;;;2.12;100.00;100270.63;15273249;19;20354;-57
2021/12/24 16:19:19;;;;;;;12.30;4.97;;;;;;;2.05;100.00;100280.63;15275527;19;20029;-57
2021/12/24 16:24:21;;;;;;;12.00;5.45;;;;;;;1.93;100.00;100279.28;15295829;19;20467;-57
2021/12/24 16:29:45;;;;;;;10.50;4.78;;;;;;;2.00;100.00;100292.44;15297331;19;20042;-57
2021/12/24 16:34:47;;;;;;;12.48;6.22;;;;;;;1.98;100.00;100300.13;15297930;19;20025;-58
2021/12/24 16:39:49;;;;;;;11.45;5.95;;;;;;;1.93;100.00;100317.13;15298230;19;20478;-58
2021/12/24 16:44:51;;;;;;;10.20;5.38;;;;;;;1.66;100.00;100345.19;15294382;19;20035;-57
2021/12/24 16:49:53;;;;;;;16.60;6.13;;;;;;;1.49;100.00;100352.16;15297634;19;20116;-57
2021/12/24 16:54:54;;;;;;;10.43;4.90;;;;;;;1.04;100.00;100362.91;15294673;19;20033;-58
2021/12/24 16:59:56;;;;;;;10.60;4.00;;;;;;;0.81;100.00;100378.16;15297261;19;20039;-57
2021/12/24 17:04:59;;;;;;;12.00;4.18;;;;;;;0.53;100.00;100404.22;15293736;19;20596;-58
2021/12/24 17:10:13;;;;;;;8.50;3.85;;;;;;;0.41;100.00;100427.66;15296712;19;20484;-58
2021/12/24 17:15:31;;;;;;;12.68;4.20;;;;;;;0.39;100.00;100421.53;15166463;19;2004428;-58
2021/12/24 17:20:55;;;;;;;11.80;4.55;;;;;;;0.33;100.00;100439.22;15289459;19;20006;-57
2021/12/24 17:26:24;;;;;;;13.48;4.90;;;;;;;0.27;100.00;100441.47;15278217;19;20023;-57
2021/12/24 17:31:43;;;;;;;12.85;5.60;;;;;;;0.22;100.00;100445.50;15276340;19;20007;-57
2021/12/24 17:37:10;;;;;;;16.63;5.78;;;;;;;0.15;100.00;100439.13;15272278;19;20553;-58
2021/12/24 17:42:32;;;;;;;19.13;6.40;;;;;;;0.06;100.00;100447.28;15266291;19;20151;-58
2021/12/24 17:47:55;;;;;;;14.80;5.28;;;;;;;0.00;100.00;100444.38;15285160;19;20034;-57
2021/12/24 17:53:13;;;;;;;14.10;5.93;;;;;;;-0.04;100.00;100447.59;15274779;19;20010;-58
2021/12/24 17:58:33;;;;;;;14.63;5.93;;;;;;;0.01;100.00;100448.69;15278273;19;20497;-57
2021/12/24 18:04:09;;;;;;;15.77;6.78;;;;;;;-0.05;100.00;100461.25;15280886;19;20474;-57
2021/12/24 18:09:25;;;;;;;17.08;6.93;;;;;;;-0.13;100.00;100477.97;15266943;19;20035;-56
2021/12/24 18:14:36;;;;;;;12.95;5.22;;;;;;;-0.13;100.00;100478.84;15267611;19;20028;-57
2021/12/24 18:19:56;;;;;;;21.73;6.45;;;;;;;-0.24;100.00;100491.13;15273615;19;20019;-57
2021/12/24 18:25:26;;;;;;;17.23;6.40;;;;;;;-0.26;100.00;100497.84;15259875;19;20022;-56
2021/12/24 18:30:42;;;;;;;13.35;4.57;;;;;;;-0.29;100.00;100497.69;15290649;19;20017;-57
2021/12/24 18:35:43;;;;;;;9.30;3.45;;;;;;;-0.36;100.00;100519.63;15290375;19;20018;-57
2021/12/24 18:40:48;;;;;;;6.18;1.80;;;;;;;-0.50;100.00;100538.50;15288115;19;20015;-58
2021/12/24 18:45:50;;;;;;;5.82;1.92;;;;;;;-0.79;98.94;100557.41;15287515;19;20018;-58
2021/12/24 18:50:54;;;;;;;3.60;1.73;;;;;;;-0.86;98.81;100562.97;15289266;19;20021;-57
2021/12/24 18:55:57;;;;;;;7.55;1.80;;;;;;;-0.98;97.80;100578.56;15287869;19;20109;-56
2021/12/24 19:00:58;;;;;;;16.52;1.40;;;;;;;-1.11;97.31;100598.38;15285204;19;20081;-57
2021/12/24 19:06:10;;;;;;;5.03;1.30;;;;;;;-1.12;96.98;100608.56;15264238;19;20608;-57
2021/12/24 19:11:35;;;;;;;3.33;1.30;;;;;;;-1.14;97.38;100630.69;15263506;19;20097;-58
2021/12/24 19:16:42;;;;;;;2.63;1.30;;;;;;;-1.22;96.51;100634.50;15274867;19;20039;-57
2021/12/24 19:21:44;;;;;;;4.97;1.95;;;;;;;-1.23;97.59;100638.75;15284388;19;20038;-58
2021/12/24 19:26:46;;;;;;;2.97;1.17;;;;;;;-1.28;96.63;100641.00;15287613;19;20029;-57
2021/12/24 19:31:51;;;;;;;5.25;1.50;;;;;;;-1.33;96.70;100644.09;15285008;19;20503;-57
2021/12/24 19:36:53;;;;;;;4.53;1.40;;;;;;;-1.48;95.48;100651.75;15287846;19;20034;-56
2021/12/24 19:41:55;;;;;;;5.07;1.48;;;;;;;-1.43;95.08;100663.19;15283880;19;20102;-57
2021/12/24 19:46:57;;;;;;;11.10;1.95;;;;;;;-1.59;92.76;100666.47;15286311;19;20026;-56
2021/12/24 19:51:59;;;;;;;10.43;1.85;;;;;;;-1.63;91.85;100667.94;15284064;19;20087;-56
2021/12/24 19:57:01;;;;;;;8.50;1.60;;;;;;;-1.75;91.74;100667.16;15281353;19;20486;-58
2021/12/24 20:02:11;;;;;;;6.97;1.65;;;;;;;-1.76;94.92;100672.19;15282760;19;20018;-57
2021/12/24 20:07:36;;;;;;;12.40;1.90;;;;;;;-1.79;92.59;100689.19;15261418;19;20021;-56
2021/12/24 20:12:48;;;;;;;21.52;4.55;;;;;;;-1.77;93.27;100699.56;15257390;19;20434;-57
2021/12/24 20:17:52;;;;;;;10.45;2.92;;;;;;;-1.76;91.48;100709.00;15284809;19;20081;-58
2021/12/24 20:22:55;;;;;;;11.00;2.42;;;;;;;-1.79;91.48;100707.16;15284258;19;20018;-58
2021/12/24 20:27:58;;;;;;;7.55;1.73;;;;;;;-1.84;90.17;100718.78;15301179;19;20474;-58
2021/12/24 20:32:59;;;;;;;8.48;1.85;;;;;;;-1.94;89.61;100713.81;15295462;19;20098;-58
2021/12/24 20:38:06;;;;;;;5.05;1.13;;;;;;;-2.02;90.34;100710.75;15299179;19;20021;-58
2021/12/24 20:43:08;;;;;;;6.57;2.10;;;;;;;-1.93;90.67;100717.31;15295949;19;20023;-59
2021/12/24 20:48:10;;;;;;;3.92;1.08;;;;;;;-2.04;87.06;100722.59;15298025;19;20030;-58
2021/12/24 20:53:12;;;;;;;8.93;1.60;;;;;;;-2.08;87.59;100732.56;15291738;19;20039;-58
2021/12/24 20:58:18;;;;;;;9.30;2.40;;;;;;;-2.19;84.68;100739.50;15297679;19;20438;-58
2021/12/24 21:03:32;;;;;;;3.10;0.85;;;;;;;-2.24;85.23;100730.63;15292424;19;20074;-58
2021/12/24 21:09:01;;;;;;;4.22;1.13;;;;;;;-2.37;84.07;100728.91;15273286;19;20486;-59
2021/12/24 21:14:15;;;;;;;3.92;1.55;;;;;;;-2.34;84.38;100727.44;15271869;19;20066;-58
2021/12/24 21:19:17;;;;;;;8.57;1.23;;;;;;;-2.48;83.93;100720.47;15293094;19;20474;-58
2021/12/24 21:24:19;;;;;;;2.13;0.90;;;;;;;-2.47;85.57;100723.97;15291644;19;20010;-59
2021/12/24 21:29:21;;;;;;;2.63;1.13;;;;;;;-2.54;84.96;100726.09;15294281;19;20042;-59
2021/12/24 21:34:22;;;;;;;2.95;1.00;;;;;;;-2.57;84.70;100725.88;15295207;19;20090;-59
2021/12/24 21:39:24;;;;;;;11.15;2.60;;;;;;;-2.58;84.44;100723.19;15293564;19;20577;-58
2021/12/24 21:44:27;;;;;;;8.70;2.22;;;;;;;-2.65;85.00;100742.41;15290790;19;20082;-58
2021/12/24 21:49:30;;;;;;;8.02;2.10;;;;;;;-2.65;85.41;100751.78;15295166;19;20086;-58
2021/12/24 21:54:34;;;;;;;4.55;1.15;;;;;;;-2.76;84.90;100758.69;15294503;19;20021;-58
2021/12/24 21:59:35;;;;;;;1.98;0.95;;;;;;;-2.72;86.97;100758.16;15293719;19;20015;-58
2021/12/24 22:05:21;;;;;;;10.00;1.40;;;;;;;-2.74;85.67;100769.97;15285922;19;20006;-59
2021/12/24 22:10:37;;;;;;;8.40;1.67;;;;;;;-2.78;86.15;100779.09;15175949;19;2004865;-58
2021/12/24 22:15:55;;;;;;;3.30;0.90;;;;;;;-2.85;85.33;100789.72;15292530;19;20038;-58
2021/12/24 22:21:00;;;;;;;8.30;1.60;;;;;;;-2.84;86.16;100783.81;15288544;19;20326;-58
2021/12/24 22:26:03;;;;;;;14.25;2.58;;;;;;;-2.86;86.97;100798.19;15286711;19;20014;-58
2021/12/24 22:31:05;;;;;;;6.07;1.40;;;;;;;-2.89;88.34;100793.72;15285794;19;20578;-58
2021/12/24 22:36:07;;;;;;;5.22;1.40;;;;;;;-2.96;86.92;100806.88;15289730;19;20010;-58
2021/12/24 22:41:11;;;;;;;6.40;1.50;;;;;;;-2.92;86.96;100808.88;15290779;19;20014;-58
2021/12/24 22:46:12;;;;;;;4.45;1.30;;;;;;;-2.96;86.41;100817.13;15287713;19;20526;-58
2021/12/24 22:51:14;;;;;;;2.80;1.10;;;;;;;-3.08;86.00;100822.28;15289631;19;20096;-58
2021/12/24 22:56:16;;;;;;;1.20;0.52;;;;;;;-3.12;86.07;100825.41;15289441;19;20415;-58
2021/12/24 23:01:18;;;;;;;7.43;1.45;;;;;;;-3.21;86.87;100824.75;15288871;19;20019;-58
2021/12/24 23:06:28;;;;;;;2.60;1.40;;;;;;;-3.31;81.04;100832.53;15264221;19;20389;-57
2021/12/24 23:11:41;;;;;;;1.67;0.57;;;;;;;-3.57;76.00;100837.50;15290283;19;20010;-58
2021/12/24 23:16:43;;;;;;;1.67;0.65;;;;;;;-3.55;75.87;100842.72;15297825;19;20057;-58
2021/12/24 23:21:47;;;;;;;0.30;0.30;;;;;;;-3.78;74.93;100846.13;15289125;19;20519;-57
2021/12/24 23:26:49;;;;;;;4.55;1.02;;;;;;;-3.87;75.21;100848.88;15282727;19;20007;-57
2021/12/24 23:31:50;;;;;;;4.03;0.47;;;;;;;-3.92;74.93;100845.97;15285734;19;20483;-57
2021/12/24 23:36:52;;;;;;;0.40;0.30;;;;;;;-3.99;75.11;100847.97;15287599;19;20038;-57
2021/12/24 23:41:54;;;;;;;1.88;0.70;;;;;;;-4.05;74.15;100862.81;15288308;19;20369;-58
2021/12/24 23:47:07;;;;;;;1.50;0.40;;;;;;;-4.15;74.20;100871.47;15287338;19;20082;-58
2021/12/24 23:52:13;;;;;;;1.80;0.50;;;;;;;-4.17;74.69;100880.69;15286911;19;20183;-57
2021/12/24 23:57:15;;;;;;;2.95;0.75;;;;;;;-4.22;75.15;100871.75;15287917;19;20029;-57
